Time;durP1;ratioP1;P1;durP2;ratioP2;P2;SDS_P1;SDS_P2;PMS_P1;PMS_P2;Temp;Humidity;BMP_temperature;BMP_pressure;BME280_temperature;BME280_humidity;BME280_pressure;Samples;Min_cycle;Max_cycle;Signal;HPM_P1;HPM_P2
2021/03/20 00:00:40;;;;;;;1999.90;999.90;;;;;;;0.19;63.42;102349.44;15719963;28;20052;-59
2021/03/20 00:08:17;;;;;;;1999.90;999.90;;;;;;;0.04;63.89;102355.28;15719808;28;20032;-60
2021/03/20 00:15:48;;;;;;;1999.90;999.90;;;;;;;0.07;63.57;102368.53;15736186;28;20123;-58
2021/03/20 00:23:21;;;;;;;1999.90;999.90;;;;;;;0.31;62.79;102363.28;15717364;28;20132;-58
2021/03/20 00:30:55;;;;;;;1999.90;999.90;;;;;;;0.48;62.89;102351.50;15718284;28;20131;-56
2021/03/20 00:38:28;;;;;;;1999.90;999.90;;;;;;;0.38;62.69;102364.06;15737300;28;20049;-56
2021/03/20 00:46:00;;;;;;;1999.90;999.90;;;;;;;0.45;62.84;102343.72;15736170;28;20040;-54
2021/03/20 00:53:32;;;;;;;1999.90;999.90;;;;;;;0.28;63.58;102370.91;15718237;28;20078;-58
2021/03/20 01:01:06;;;;;;;1999.90;999.90;;;;;;;0.67;62.71;102359.78;15716950;28;20054;-58
2021/03/20 01:08:38;;;;;;;;;;;;;;;0.65;62.92;102373.75;15735751;28;20049;-56
2021/03/20 01:16:10;;;;;;;1999.90;999.90;;;;;;;0.64;63.03;102354.75;15735653;28;20378;-59
2021/03/20 01:23:43;;;;;;;1999.90;999.90;;;;;;;0.79;61.91;102355.19;15735800;28;20054;-58
2021/03/20 01:31:15;;;;;;;1999.90;999.90;;;;;;;0.83;62.22;102345.41;15735320;28;20055;-61
2021/03/20 01:38:48;;;;;;;1999.90;999.90;;;;;;;0.67;62.55;102362.53;15735885;28;20143;-60
2021/03/20 01:46:42;;;;;;;1999.90;999.90;;;;;;;0.97;62.11;102357.13;15734418;28;20079;-60
2021/03/20 01:54:15;;;;;;;1999.90;999.90;;;;;;;0.73;62.58;102336.84;15674904;28;20045;-57
2021/03/20 02:01:46;;;;;;;1999.90;999.90;;;;;;;0.89;61.89;102349.19;15715848;28;20459;-56
2021/03/20 02:09:19;;;;;;;1999.90;999.90;;;;;;;0.88;62.00;102344.75;15732783;28;20063;-59
2021/03/20 02:16:55;;;;;;;1999.90;999.90;;;;;;;0.98;61.85;102337.66;15731759;28;20054;-59
2021/03/20 02:24:55;;;;;;;1999.90;999.90;;;;;;;1.03;61.86;102335.03;15704785;28;20400;-57
2021/03/20 02:32:40;;;;;;;1999.90;999.90;;;;;;;1.15;61.46;102337.88;15731188;28;20136;-58
2021/03/20 02:40:18;;;;;;;1999.90;999.90;;;;;;;0.96;62.76;102338.94;15713466;28;20382;-60
2021/03/20 02:47:57;;;;;;;1999.90;999.90;;;;;;;0.79;63.01;102324.97;15713224;28;20110;-58
2021/03/20 02:55:33;;;;;;;1999.90;999.90;;;;;;;0.98;62.86;102329.41;15689294;28;20064;-60
2021/03/20 03:03:08;;;;;;;1999.90;999.90;;;;;;;1.12;61.56;102339.16;15742076;28;20056;-59
2021/03/20 03:10:45;;;;;;;1999.90;999.90;;;;;;;1.19;62.07;102333.56;15724578;28;20049;-57
2021/03/20 03:18:22;;;;;;;1999.90;999.90;;;;;;;1.12;62.46;102333.66;15721615;28;20090;-60
2021/03/20 03:25:58;;;;;;;1999.90;999.90;;;;;;;1.17;62.65;102324.72;15717240;28;20102;-58
2021/03/20 03:33:36;;;;;;;1999.90;999.90;;;;;;;1.12;62.81;102328.16;15712155;28;20117;-57
2021/03/20 03:41:11;;;;;;;1999.90;999.90;;;;;;;1.22;62.50;102337.78;15722252;28;20052;-58
2021/03/20 03:48:43;;;;;;;1999.90;999.90;;;;;;;1.17;62.80;102346.72;15741743;28;20048;-60
2021/03/20 03:56:31;;;;;;;1999.90;999.90;;;;;;;1.06;63.08;102351.09;15739479;28;20083;-58
2021/03/20 04:04:19;;;;;;;1999.90;999.90;;;;;;;1.24;62.58;102360.38;15739038;28;20056;-60
2021/03/20 04:12:15;;;;;;;1999.90;999.90;;;;;;;1.22;62.44;102341.34;15718538;28;20071;-60
2021/03/20 04:19:58;;;;;;;1999.90;999.90;;;;;;;1.08;63.53;102345.34;15738288;28;20131;-58
2021/03/20 04:27:32;;;;;;;1999.90;999.90;;;;;;;1.01;62.65;102348.16;15688487;28;20094;-60
2021/03/20 04:35:10;;;;;;;1999.90;999.90;;;;;;;0.92;63.71;102337.72;15736094;28;20437;-58
2021/03/20 04:42:42;;;;;;;1999.90;999.90;;;;;;;0.78;64.34;102343.38;15717289;28;20039;-56
2021/03/20 04:50:20;;;;;;;1999.90;999.90;;;;;;;1.01;63.85;102345.41;15734398;28;20412;-57
2021/03/20 04:57:56;;;;;;;1999.90;999.90;;;;;;;1.07;62.80;102329.94;15717095;28;20349;-58
2021/03/20 05:05:32;;;;;;;1999.90;999.90;;;;;;;1.20;62.38;102343.50;15717319;28;20048;-60
2021/03/20 05:13:10;;;;;;;1999.90;999.90;;;;;;;1.23;63.09;102356.78;15717048;28;20060;-62
2021/03/20 05:20:44;;;;;;;1999.90;999.90;;;;;;;1.26;62.98;102350.84;15734927;28;20048;-58
2021/03/20 05:28:15;;;;;;;1999.90;999.90;;;;;;;1.26;62.73;102350.84;15735422;28;20051;-63
2021/03/20 05:35:47;;;;;;;1999.90;999.90;;;;;;;1.41;62.08;102356.75;15733660;28;20552;-62
2021/03/20 05:43:39;;;;;;;1999.90;999.90;;;;;;;1.38;63.05;102371.00;15715345;28;20052;-62
2021/03/20 05:51:28;;;;;;;1999.90;999.90;;;;;;;1.66;61.80;102364.88;15735146;28;20057;-61
2021/03/20 05:59:12;;;;;;;1999.90;999.90;;;;;;;1.85;61.93;102364.81;15733607;28;20048;-62
2021/03/20 06:07:07;;;;;;;1999.90;999.90;;;;;;;2.01;61.11;102364.16;15714903;28;20147;-62
2021/03/20 06:14:53;;;;;;;1999.90;999.90;;;;;;;2.05;61.42;102381.88;15732148;28;20052;-63
2021/03/20 06:22:51;;;;;;;1999.90;999.90;;;;;;;2.05;60.97;102384.63;15715037;28;20091;-61
2021/03/20 06:30:36;;;;;;;1999.90;999.90;;;;;;;1.94;60.82;102397.28;15691116;28;20527;-63
2021/03/20 06:38:27;;;;;;;1999.90;999.90;;;;;;;2.29;60.06;102394.66;15743946;28;20131;-62
2021/03/20 06:45:59;;;;;;;1999.90;999.90;;;;;;;2.76;58.40;102396.59;15725054;28;20055;-60
2021/03/20 06:53:40;;;;;;;1999.90;999.90;;;;;;;3.38;57.65;102381.13;15742505;28;20041;-61
2021/03/20 07:01:39;;;;;;;1999.90;999.90;;;;;;;4.37;53.59;102377.97;15725165;28;20048;-61
2021/03/20 07:09:11;;;;;;;1999.90;999.90;;;;;;;5.43;49.92;102377.88;15716848;28;20044;-60
2021/03/20 07:16:52;;;;;;;1999.90;999.90;;;;;;;5.32;49.51;102356.69;15742320;28;20489;-61
2021/03/20 07:24:34;;;;;;;1999.90;999.90;;;;;;;5.84;46.88;102370.84;15723511;28;20040;-61
2021/03/20 07:32:06;;;;;;;1999.90;999.90;;;;;;;6.77;45.59;102376.09;15740490;28;20119;-62
2021/03/20 07:39:41;;;;;;;1999.90;999.90;;;;;;;6.79;43.96;102373.91;15721919;28;20076;-62
2021/03/20 07:47:14;;;;;;;1999.90;999.90;;;;;;;7.48;42.83;102379.25;15742115;28;20441;-62
2021/03/20 07:54:46;;;;;;;1999.90;999.90;;;;;;;7.48;41.51;102385.63;15717060;28;20456;-61
2021/03/20 08:02:28;;;;;;;1999.90;999.90;;;;;;;7.55;42.17;102390.13;15737077;28;20048;-62
2021/03/20 08:10:18;;;;;;;1999.90;999.90;;;;;;;7.92;40.12;102396.38;15724736;28;20380;-62
2021/03/20 08:17:49;;;;;;;1999.90;999.90;;;;;;;8.36;37.15;102398.66;15724200;28;20059;-62
2021/03/20 08:25:32;;;;;;;1999.90;999.90;;;;;;;8.27;37.97;102411.44;15723979;28;20051;-61
2021/03/20 08:33:43;;;;;;;1999.90;999.90;;;;;;;8.20;38.48;102408.06;15719663;28;20107;-62
2021/03/20 08:41:25;;;;;;;1999.90;999.90;;;;;;;7.37;38.71;102394.22;15714878;28;20458;-63
2021/03/20 08:49:02;;;;;;;1999.90;999.90;;;;;;;7.51;37.95;102400.94;15737426;28;20040;-63
2021/03/20 08:56:52;;;;;;;1999.90;999.90;;;;;;;8.23;35.32;102411.16;15737157;28;20079;-63
2021/03/20 09:04:28;;;;;;;1999.90;999.90;;;;;;;8.61;35.24;102407.00;15738252;28;20095;-63
2021/03/20 09:12:07;;;;;;;1999.90;999.90;;;;;;;8.78;35.36;102408.69;15737395;28;20350;-61
2021/03/20 09:19:46;;;;;;;1999.90;999.90;;;;;;;8.78;38.13;102415.09;15736958;28;20437;-63
2021/03/20 09:27:51;;;;;;;1999.90;999.90;;;;;;;7.90;36.65;102415.22;15718122;28;20056;-62
2021/03/20 09:35:36;;;;;;;1999.90;999.90;;;;;;;8.53;36.83;102407.56;15735324;28;20068;-62
2021/03/20 09:43:24;;;;;;;1999.90;999.90;;;;;;;8.41;36.44;102417.31;15734977;28;20041;-60
2021/03/20 09:50:56;;;;;;;1999.90;999.90;;;;;;;7.82;37.39;102408.28;15741096;28;20082;-62
2021/03/20 09:58:41;;;;;;;1999.90;999.90;;;;;;;9.13;35.44;102405.00;15733423;28;20076;-62
2021/03/20 10:06:32;;;;;;;1999.90;999.90;;;;;;;8.72;35.25;102405.06;15737618;28;20140;-59
2021/03/20 10:14:23;;;;;;;1999.90;999.90;;;;;;;8.50;35.88;102390.59;15728238;28;20074;-62
2021/03/20 10:22:00;;;;;;;1999.90;999.90;;;;;;;8.33;35.76;102396.38;15713720;28;20049;-62
2021/03/20 10:29:34;;;;;;;1999.90;999.90;;;;;;;8.28;34.81;102385.28;15746385;28;20048;-61
2021/03/20 10:37:09;;;;;;;1999.90;999.90;;;;;;;9.36;34.18;102384.00;15745571;28;20032;-61
2021/03/20 10:44:43;;;;;;;1999.90;999.90;;;;;;;10.35;33.18;102379.28;15697026;28;20587;-63
2021/03/20 10:52:19;;;;;;;1999.90;999.90;;;;;;;10.85;33.02;102380.78;15727328;28;20131;-63
2021/03/20 10:59:51;;;;;;;1999.90;999.90;;;;;;;10.93;32.11;102371.75;15744409;28;20302;-61
2021/03/20 11:07:24;;;;;;;1999.90;999.90;;;;;;;11.02;33.08;102357.97;15671225;28;20040;-61
2021/03/20 11:14:58;;;;;;;1999.90;999.90;;;;;;;8.68;32.65;102346.34;15679954;28;20473;-60
2021/03/20 11:22:37;;;;;;;1999.90;999.90;;;;;;;8.49;34.81;102345.25;15716096;28;20081;-63
2021/03/20 11:30:15;;;;;;;1999.90;999.90;;;;;;;9.69;32.31;102337.88;15707028;28;20052;-60
2021/03/20 11:37:48;;;;;;;1999.90;999.90;;;;;;;10.21;33.08;102326.06;15706018;28;20062;-62
2021/03/20 11:45:25;;;;;;;1999.90;999.90;;;;;;;9.21;32.57;102318.91;15714269;28;20064;-57
2021/03/20 11:53:03;;;;;;;1999.90;999.90;;;;;;;9.81;31.35;102311.31;15697822;28;20049;-61
2021/03/20 12:00:41;;;;;;;1999.90;999.90;;;;;;;10.43;30.31;102302.50;15711815;28;20048;-57
2021/03/20 12:08:34;;;;;;;1999.90;999.90;;;;;;;10.37;30.79;102280.19;15718014;28;20051;-59
2021/03/20 12:16:06;;;;;;;1999.90;999.90;;;;;;;10.68;30.06;102268.72;15679093;28;20104;-60
2021/03/20 12:23:38;;;;;;;1999.90;999.90;;;;;;;11.97;29.19;102267.50;15720132;28;20041;-62
2021/03/20 12:31:30;;;;;;;1999.90;999.90;;;;;;;10.53;30.30;102249.34;15690071;28;20080;-56
2021/03/20 12:39:04;;;;;;;1999.90;999.90;;;;;;;9.61;31.06;102230.63;15667058;28;20593;-57
2021/03/20 12:46:37;;;;;;;1999.90;999.90;;;;;;;9.58;31.37;102222.81;15736626;28;20087;-57
2021/03/20 12:54:19;;;;;;;1999.90;999.90;;;;;;;9.96;30.00;102212.75;15685814;28;20089;-58
2021/03/20 13:01:53;;;;;;;1999.90;999.90;;;;;;;9.47;30.18;102205.34;15718939;28;20240;-62
2021/03/20 13:09:25;;;;;;;1999.90;999.90;;;;;;;8.58;30.27;102198.88;15712224;28;20459;-61
2021/03/20 13:16:57;;;;;;;1999.90;999.90;;;;;;;8.81;33.06;102179.84;15680206;28;20124;-62
2021/03/20 13:24:30;;;;;;;1999.90;999.90;;;;;;;9.09;33.28;102181.09;15693569;28;20056;-61
2021/03/20 13:32:01;;;;;;;1999.90;999.90;;;;;;;8.91;32.56;102177.84;15692757;28;20053;-61
2021/03/20 13:39:33;;;;;;;1999.90;999.90;;;;;;;8.60;32.18;102173.53;15698446;28;20449;-62
2021/03/20 13:47:06;;;;;;;1999.90;999.90;;;;;;;8.45;33.37;102162.50;15694035;28;20071;-62
2021/03/20 13:54:38;;;;;;;1999.90;999.90;;;;;;;8.67;34.04;102157.38;15737105;28;20105;-63
2021/03/20 14:02:13;;;;;;;1999.90;999.90;;;;;;;8.15;34.42;102143.91;15697961;28;20049;-63
2021/03/20 14:09:45;;;;;;;1999.90;999.90;;;;;;;7.82;34.17;102129.53;15708950;28;20044;-61
2021/03/20 14:17:16;;;;;;;1999.90;999.90;;;;;;;7.22;35.19;102114.53;15675804;28;20041;-63
2021/03/20 14:24:49;;;;;;;1999.90;999.90;;;;;;;6.73;36.83;102103.06;15711682;28;20040;-62
2021/03/20 14:32:21;;;;;;;1999.90;999.90;;;;;;;7.35;36.60;102096.50;15734527;28;20148;-62
2021/03/20 14:39:53;;;;;;;1999.90;999.90;;;;;;;7.49;37.37;102086.47;15689450;28;20069;-61
2021/03/20 14:47:25;;;;;;;1999.90;999.90;;;;;;;6.93;37.86;102084.53;15732345;28;20158;-61
2021/03/20 14:54:57;;;;;;;1999.90;999.90;;;;;;;7.21;37.63;102055.41;15736158;28;20044;-63
2021/03/20 15:02:28;;;;;;;1999.90;999.90;;;;;;;6.79;38.01;102054.81;15722390;28;20167;-62
2021/03/20 15:10:01;;;;;;;1999.90;999.90;;;;;;;6.73;38.40;102056.75;15712956;28;20048;-62
2021/03/20 15:17:34;;;;;;;1999.90;999.90;;;;;;;5.83;38.13;102050.56;15747074;28;20048;-63
2021/03/20 15:25:09;;;;;;;1999.90;999.90;;;;;;;6.31;38.54;102040.28;15727255;28;20110;-63
2021/03/20 15:32:41;;;;;;;1999.90;999.90;;;;;;;6.02;38.45;102015.78;15749272;28;20165;-62
2021/03/20 15:40:21;;;;;;;1999.90;999.90;;;;;;;6.35;39.01;102005.34;15753381;28;20049;-59
2021/03/20 15:47:53;;;;;;;1999.90;999.90;;;;;;;6.16;38.42;101995.91;15737365;28;20192;-64
2021/03/20 15:55:26;;;;;;;1999.90;999.90;;;;;;;6.55;37.82;101987.91;15751147;28;20041;-62
2021/03/20 16:02:58;;;;;;;1999.90;999.90;;;;;;;5.95;38.74;101978.38;15723637;28;20582;-63
2021/03/20 16:10:34;;;;;;;1999.90;999.90;;;;;;;6.21;38.18;101965.41;15777943;28;20044;-58
2021/03/20 16:18:06;;;;;;;1999.90;999.90;;;;;;;6.18;38.88;101964.03;15735594;28;20075;-59
2021/03/20 16:25:39;;;;;;;1999.90;999.90;;;;;;;5.77;39.18;101943.63;15708183;28;20496;-60
2021/03/20 16:33:16;;;;;;;1999.90;999.90;;;;;;;5.95;39.43;101936.81;15707335;28;20052;-60
2021/03/20 16:40:48;;;;;;;1999.90;999.90;;;;;;;6.10;40.16;101949.84;15734266;28;20620;-62
2021/03/20 16:48:20;;;;;;;1999.90;999.90;;;;;;;6.30;39.43;101924.94;15711532;28;20091;-61
2021/03/20 16:55:53;;;;;;;1999.90;999.90;;;;;;;6.22;38.72;101917.16;15725575;28;20071;-62
2021/03/20 17:03:24;;;;;;;1999.90;999.90;;;;;;;6.18;39.61;101918.84;15731982;28;20106;-61
2021/03/20 17:10:57;;;;;;;1999.90;999.90;;;;;;;6.17;39.52;101915.25;15726422;28;20508;-61
2021/03/20 17:18:31;;;;;;;1999.90;999.90;;;;;;;5.69;40.46;101911.72;15714908;28;20074;-63
2021/03/20 17:26:04;;;;;;;1999.90;999.90;;;;;;;5.51;40.43;101885.34;15732069;28;20051;-62
2021/03/20 17:33:37;;;;;;;1999.90;999.90;;;;;;;5.67;41.05;101885.44;15744398;23;20512;-65
2021/03/20 17:41:09;;;;;;;1999.90;999.90;;;;;;;5.64;40.94;101866.59;15761756;28;20416;-65
2021/03/20 17:48:42;;;;;;;1999.90;999.90;;;;;;;5.61;40.01;101872.66;15771660;28;20036;-66
2021/03/20 17:56:14;;;;;;;1999.90;999.90;;;;;;;5.70;40.16;101857.19;15778433;28;20062;-66
2021/03/20 18:03:46;;;;;;;1999.90;999.90;;;;;;;5.42;40.40;101844.66;15780957;28;20121;-65
2021/03/20 18:11:19;;;;;;;1999.90;999.90;;;;;;;5.47;39.89;101844.66;15775833;28;20575;-65
2021/03/20 18:18:50;;;;;;;1999.90;999.90;;;;;;;5.28;40.84;101830.47;15775625;28;20062;-65
2021/03/20 18:26:22;;;;;;;1999.90;999.90;;;;;;;5.69;40.09;101813.97;15776558;28;20140;-65
2021/03/20 18:33:57;;;;;;;1999.90;999.90;;;;;;;5.44;40.06;101806.44;15784124;28;20089;-65
2021/03/20 18:41:29;;;;;;;1999.90;999.90;;;;;;;5.33;40.09;101800.03;15786238;28;20519;-63
2021/03/20 18:49:01;;;;;;;1999.90;999.90;;;;;;;5.50;40.41;101777.66;15805528;28;20407;-65
2021/03/20 18:56:34;;;;;;;1999.90;999.90;;;;;;;5.50;39.66;101778.47;15806065;28;20040;-64
2021/03/20 19:04:05;;;;;;;1999.90;999.90;;;;;;;5.74;40.06;101781.59;15803861;28;20310;-63
2021/03/20 19:11:37;;;;;;;1999.90;999.90;;;;;;;5.75;40.51;101769.41;15782100;28;20467;-66
2021/03/20 19:19:11;;;;;;;1999.90;999.90;;;;;;;5.30;40.10;101760.97;15778023;28;20133;-65
2021/03/20 19:26:43;;;;;;;1999.90;999.90;;;;;;;5.35;40.85;101736.09;15789607;28;20480;-62
2021/03/20 19:34:15;;;;;;;1999.90;999.90;;;;;;;5.16;41.76;101744.06;15807705;28;20515;-63
2021/03/20 19:41:47;;;;;;;1999.90;999.90;;;;;;;5.38;41.99;101736.38;15747468;28;20388;-65
2021/03/20 19:49:18;;;;;;;1999.90;999.90;;;;;;;4.97;42.96;101718.81;15807932;28;20047;-61
2021/03/20 19:56:52;;;;;;;1999.90;999.90;;;;;;;4.96;43.41;101700.56;15806770;28;20044;-68
2021/03/20 20:04:23;;;;;;;1999.90;999.90;;;;;;;4.98;43.86;101690.06;15806376;28;20105;-65
2021/03/20 20:11:55;;;;;;;1999.90;999.90;;;;;;;4.99;44.43;101674.28;15806631;28;20056;-68
2021/03/20 20:19:29;;;;;;;1999.90;999.90;;;;;;;4.88;45.25;101665.13;15787761;28;20430;-67
2021/03/20 20:27:02;;;;;;;1999.90;999.90;;;;;;;5.18;44.35;101675.44;15760193;28;20057;-64
2021/03/20 20:34:34;;;;;;;1999.90;999.90;;;;;;;5.02;44.85;101660.75;15804093;28;20728;-65
2021/03/20 20:42:08;;;;;;;1999.90;999.90;;;;;;;5.03;45.12;101653.28;15803831;28;20059;-66
2021/03/20 20:49:40;;;;;;;;;;;;;;;5.33;45.74;101638.69;15802134;28;20128;-60
2021/03/20 20:57:13;;;;;;;1999.90;999.90;;;;;;;5.10;46.33;101623.41;15803439;28;20022;-62
2021/03/20 21:04:44;;;;;;;1999.90;999.90;;;;;;;5.01;46.90;101605.72;15803438;28;20051;-65
2021/03/20 21:12:17;;;;;;;1999.90;999.90;;;;;;;4.92;47.15;101597.13;15802786;28;20138;-60
2021/03/20 21:19:49;;;;;;;1999.90;999.90;;;;;;;4.88;47.69;101596.00;15786115;28;20086;-67
2021/03/20 21:27:21;;;;;;;1999.90;999.90;;;;;;;5.19;47.37;101574.72;15802122;28;20052;-60
2021/03/20 21:34:53;;;;;;;1999.90;999.90;;;;;;;5.10;47.77;101570.84;15800787;28;20047;-65
2021/03/20 21:42:26;;;;;;;1999.90;999.90;;;;;;;4.89;48.82;101559.75;15801975;28;20138;-67
2021/03/20 21:49:58;;;;;;;;;;;;;;;5.06;48.45;101534.63;15800235;28;20073;-66
2021/03/20 21:57:31;;;;;;;1999.90;999.90;;;;;;;5.06;48.63;101520.78;15782926;28;20006;-65
2021/03/20 22:05:03;;;;;;;1999.90;999.90;;;;;;;5.19;48.92;101506.38;15801974;28;20048;-65
2021/03/20 22:12:36;;;;;;;1999.90;999.90;;;;;;;5.12;49.12;101491.19;15819951;28;20225;-65
2021/03/20 22:20:22;;;;;;;1999.90;999.90;;;;;;;5.23;49.82;101462.41;15818748;28;20060;-66
2021/03/20 22:27:55;;;;;;;1999.90;999.90;;;;;;;5.30;50.06;101451.84;15800118;28;20040;-66
2021/03/20 22:35:26;;;;;;;1999.90;999.90;;;;;;;5.18;49.83;101441.06;15800798;28;20052;-65
2021/03/20 22:42:58;;;;;;;1999.90;999.90;;;;;;;5.31;50.28;101425.00;15817738;28;20052;-65
2021/03/20 22:50:31;;;;;;;1999.90;999.90;;;;;;;4.93;50.99;101391.34;15801259;28;20102;-63
2021/03/20 22:58:04;;;;;;;1999.90;999.90;;;;;;;4.98;51.43;101384.97;15818465;28;20079;-66
2021/03/20 23:05:37;;;;;;;1999.90;999.90;;;;;;;4.92;52.23;101368.38;15818702;28;20205;-66
2021/03/20 23:13:10;;;;;;;1999.90;999.90;;;;;;;4.91;52.07;101369.50;15764809;28;20044;-64
2021/03/20 23:20:42;;;;;;;1999.90;999.90;;;;;;;4.98;52.37;101354.53;15807368;28;20048;-65
2021/03/20 23:28:16;;;;;;;1999.90;999.90;;;;;;;5.10;52.01;101338.44;15787090;28;20097;-65
2021/03/20 23:35:48;;;;;;;1999.90;999.90;;;;;;;5.20;52.10;101324.59;15772621;28;20044;-62
2021/03/20 23:43:20;;;;;;;1999.90;999.90;;;;;;;5.42;51.32;101302.09;15782358;28;20446;-62
2021/03/20 23:50:53;;;;;;;1999.90;999.90;;;;;;;5.36;52.67;101292.97;15802665;28;20040;-63
2021/03/20 23:58:25;;;;;;;1999.90;999.90;;;;;;;5.35;52.31;101285.78;15804363;28;20368;-63
